createdAt,value
2023-04-21T00:04:45.807Z,9.84
2023-04-21T00:09:47.432Z,9.80
2023-04-21T00:14:48.769Z,9.67
2023-04-21T00:19:50.425Z,9.76
2023-04-21T00:24:51.933Z,9.76
2023-04-21T00:29:53.248Z,9.80
2023-04-21T00:34:54.557Z,9.82
2023-04-21T00:39:55.864Z,9.82
2023-04-21T00:44:57.271Z,9.75
2023-04-21T00:49:59.099Z,9.78
2023-04-21T00:55:00.874Z,9.80
2023-04-21T01:00:03.385Z,9.75
2023-04-21T01:05:08.911Z,9.60
2023-04-21T01:10:10.600Z,9.36
2023-04-21T01:15:13.464Z,9.26
2023-04-21T01:20:15.564Z,9.31
2023-04-21T01:25:18.428Z,9.30
2023-04-21T01:30:19.760Z,9.33
2023-04-21T01:35:21.132Z,9.36
2023-04-21T01:40:22.517Z,9.29
2023-04-21T01:45:23.896Z,9.24
2023-04-21T01:50:25.309Z,9.22
2023-04-21T01:55:26.670Z,9.11
2023-04-21T02:00:28.156Z,9.02
2023-04-21T02:05:29.534Z,9.03
2023-04-21T02:10:30.979Z,9.08
2023-04-21T02:15:32.415Z,9.08
2023-04-21T02:20:33.842Z,9.05
2023-04-21T02:25:35.301Z,9.04
2023-04-21T02:30:36.645Z,9.06
2023-04-21T02:35:37.979Z,9.07
2023-04-21T02:40:39.416Z,8.99
2023-04-21T02:45:40.779Z,8.92
2023-04-21T02:50:42.870Z,8.96
2023-04-21T02:55:44.296Z,8.95
2023-04-21T03:00:45.840Z,8.91
2023-04-21T03:05:47.184Z,8.92
2023-04-21T03:10:48.515Z,8.90
2023-04-21T03:15:51.046Z,8.87
2023-04-21T03:20:52.726Z,8.63
2023-04-21T03:25:54.179Z,8.61
2023-04-21T03:30:55.502Z,8.61
2023-04-21T03:35:56.852Z,8.64
2023-04-21T03:40:58.218Z,8.74
2023-04-21T03:45:59.611Z,8.75
2023-04-21T03:51:01.014Z,8.73
2023-04-21T03:56:02.353Z,8.74
2023-04-21T04:01:07.419Z,8.75
2023-04-21T04:06:08.805Z,8.74
2023-04-21T04:11:10.155Z,8.76
2023-04-21T04:16:11.630Z,8.70
2023-04-21T04:21:13.025Z,8.63
2023-04-21T04:26:14.489Z,8.66
2023-04-21T04:31:17.136Z,8.71
2023-04-21T04:36:18.733Z,8.74
2023-04-21T04:41:20.930Z,8.76
2023-04-21T04:46:22.362Z,8.79
2023-04-21T04:51:23.807Z,8.76
2023-04-21T04:56:25.360Z,8.71
2023-04-21T05:01:30.521Z,8.82
2023-04-21T05:06:32.381Z,8.88
2023-04-21T05:11:33.740Z,8.92
2023-04-21T05:16:35.216Z,8.98
2023-04-21T05:21:36.567Z,8.97
2023-04-21T05:26:37.899Z,9.05
2023-04-21T05:31:39.296Z,9.17
2023-04-21T05:36:44.136Z,9.25
2023-04-21T05:41:45.655Z,9.34
2023-04-21T05:46:46.983Z,9.43
2023-04-21T05:51:48.326Z,9.43
2023-04-21T05:56:49.653Z,9.58
2023-04-21T06:01:51.082Z,9.69
2023-04-21T06:06:52.433Z,9.82
2023-04-21T06:11:53.797Z,9.89
2023-04-21T06:16:55.247Z,10.02
2023-04-21T06:21:57.328Z,10.22
2023-04-21T06:27:07.765Z,10.39
2023-04-21T06:32:10.210Z,10.57
2023-04-21T06:37:11.643Z,10.75
2023-04-21T06:42:13.058Z,10.87
2023-04-21T06:47:16.604Z,11.15
2023-04-21T06:52:19.606Z,11.34
2023-04-21T06:57:21.592Z,11.48
2023-04-21T07:02:23.030Z,11.67
2023-04-21T07:07:24.446Z,11.90
2023-04-21T07:12:26.008Z,12.13
2023-04-21T07:17:27.582Z,12.25
2023-04-21T07:22:29.041Z,12.44
2023-04-21T07:27:30.490Z,12.54
2023-04-21T07:32:32.361Z,12.68
2023-04-21T07:37:33.749Z,12.86
2023-04-21T07:42:35.483Z,13.00
2023-04-21T07:47:36.886Z,12.89
2023-04-21T07:52:38.306Z,13.17
2023-04-21T07:57:40.134Z,13.40
2023-04-21T08:02:41.911Z,13.58
2023-04-21T08:07:43.531Z,13.74
2023-04-21T08:12:44.880Z,13.78
2023-04-21T08:17:46.289Z,14.03
2023-04-21T08:22:48.544Z,14.13
2023-04-21T08:27:50.039Z,14.28
2023-04-21T08:32:51.451Z,14.38
2023-04-21T08:37:53.576Z,14.47
2023-04-21T08:42:56.433Z,14.76
2023-04-21T08:48:01.306Z,14.93
2023-04-21T08:53:02.845Z,15.12
2023-04-21T08:58:04.905Z,15.05
2023-04-21T09:03:19.249Z,15.06
2023-04-21T09:08:26.836Z,15.31
2023-04-21T09:13:37.807Z,15.45
2023-04-21T09:18:40.304Z,15.52
2023-04-21T09:23:52.710Z,15.73
2023-04-21T09:28:54.053Z,15.86
2023-04-21T09:34:00.236Z,15.98
2023-04-21T09:44:08.763Z,16.28
2023-04-21T09:49:13.623Z,16.39
2023-04-21T09:54:29.770Z,16.60
2023-04-21T09:59:40.592Z,16.85
2023-04-21T10:04:43.906Z,17.05
2023-04-21T10:09:50.949Z,17.21
2023-04-21T10:14:53.516Z,17.55
2023-04-21T10:19:57.561Z,17.73
2023-04-21T10:25:01.332Z,17.80
2023-04-21T10:30:23.146Z,17.96
2023-04-21T10:35:24.665Z,18.03
2023-04-21T10:45:40.904Z,18.33
2023-04-21T10:50:44.231Z,18.37
2023-04-21T10:55:48.939Z,18.41
2023-04-21T11:00:55.527Z,18.43
2023-04-21T11:05:56.942Z,18.46
2023-04-21T11:10:58.292Z,18.50
2023-04-21T11:16:05.676Z,18.56
2023-04-21T11:21:18.641Z,18.32
2023-04-21T11:26:33.632Z,18.42
2023-04-21T11:31:36.904Z,18.79
2023-04-21T11:36:43.496Z,18.87
2023-04-21T11:41:46.555Z,18.82
2023-04-21T11:46:48.444Z,19.03
2023-04-21T11:51:50.231Z,19.25
2023-04-21T11:56:54.215Z,19.34
2023-04-21T12:01:55.652Z,19.50
2023-04-21T12:07:02.031Z,19.52
2023-04-21T12:12:05.310Z,19.57
2023-04-21T12:17:06.907Z,19.79
2023-04-21T12:22:12.556Z,19.95
2023-04-21T12:27:14.448Z,20.03
2023-04-21T12:32:15.815Z,20.00
2023-04-21T12:37:18.548Z,20.06
2023-04-21T12:42:19.866Z,20.19
2023-04-21T12:47:21.299Z,20.18
2023-04-21T12:52:22.685Z,20.25
2023-04-21T12:57:24.093Z,20.45
2023-04-21T13:02:25.647Z,20.44
2023-04-21T13:07:31.173Z,21.21
2023-04-21T13:12:33.205Z,21.71
2023-04-21T13:17:34.548Z,21.98
2023-04-21T13:22:36.016Z,22.10
2023-04-21T13:27:39.810Z,22.46
2023-04-21T13:32:42.292Z,22.64
2023-04-21T13:37:43.686Z,22.96
2023-04-21T13:42:45.053Z,23.23
2023-04-21T13:47:46.609Z,23.71
2023-04-21T13:52:47.987Z,24.33
2023-04-21T13:57:49.703Z,24.97
2023-04-21T14:02:51.250Z,25.60
2023-04-21T14:07:52.913Z,26.14
2023-04-21T14:12:54.385Z,26.21
2023-04-21T14:17:56.517Z,26.80
2023-04-21T14:22:57.957Z,27.92
2023-04-21T14:27:59.910Z,29.59
2023-04-21T14:33:03.183Z,31.12
2023-04-21T14:38:04.724Z,31.26
2023-04-21T14:43:06.182Z,30.84
2023-04-21T14:48:07.654Z,29.80
2023-04-21T14:53:09.079Z,29.08
2023-04-21T14:58:10.460Z,28.61
2023-04-21T15:03:12.120Z,28.93
2023-04-21T15:08:17.955Z,29.30
2023-04-21T15:13:19.351Z,29.36
2023-04-21T15:18:21.054Z,29.00
2023-04-21T15:23:22.417Z,28.92
2023-04-21T15:28:23.799Z,28.71
2023-04-21T15:33:25.238Z,27.98
2023-04-21T15:38:26.799Z,27.65
2023-04-21T15:43:28.723Z,27.09
2023-04-21T15:48:30.829Z,27.03
2023-04-21T15:53:33.971Z,27.16
2023-04-21T15:58:35.417Z,26.92
2023-04-21T16:03:37.216Z,26.79
2023-04-21T16:08:38.707Z,26.79
2023-04-21T16:13:40.172Z,27.01
2023-04-21T16:18:41.557Z,27.18
2023-04-21T16:23:42.979Z,27.30
2023-04-21T16:28:44.336Z,27.36
2023-04-21T16:33:45.735Z,27.85
2023-04-21T16:38:47.243Z,27.83
2023-04-21T16:43:48.715Z,27.72
2023-04-21T16:48:50.566Z,27.66
2023-04-21T16:53:52.166Z,27.84
2023-04-21T16:58:53.622Z,27.74
2023-04-21T17:03:55.102Z,27.68
2023-04-21T17:08:59.708Z,27.55
2023-04-21T17:14:01.581Z,27.42
2023-04-21T17:19:02.991Z,27.06
2023-04-21T17:24:04.425Z,26.46
2023-04-21T17:29:06.456Z,25.77
2023-04-21T17:34:07.831Z,25.16
2023-04-21T17:39:10.254Z,24.52
2023-04-21T17:44:11.932Z,23.97
2023-04-21T17:49:13.305Z,23.35
2023-04-21T17:54:14.647Z,22.72
2023-04-21T17:59:16.270Z,22.29
2023-04-21T18:04:18.041Z,21.98
2023-04-21T18:09:20.780Z,21.67
2023-04-21T18:14:22.211Z,21.39
2023-04-21T18:19:23.588Z,20.80
2023-04-21T18:24:25.203Z,20.15
2023-04-21T18:29:26.580Z,19.76
2023-04-21T18:34:27.958Z,19.31
2023-04-21T18:39:29.443Z,18.81
2023-04-21T18:44:31.251Z,18.53
2023-04-21T18:49:33.041Z,18.37
2023-04-21T18:54:35.047Z,18.23
2023-04-21T18:59:36.785Z,18.05
2023-04-21T19:04:38.363Z,17.84
2023-04-21T19:09:39.950Z,17.79
2023-04-21T19:14:47.003Z,17.79
2023-04-21T19:19:49.552Z,17.89
2023-04-21T19:24:51.375Z,17.86
2023-04-21T19:29:52.715Z,17.85
2023-04-21T19:34:54.129Z,17.93
2023-04-21T19:39:55.909Z,17.86
2023-04-21T19:44:57.389Z,17.60
2023-04-21T19:49:58.784Z,17.71
2023-04-21T19:55:00.246Z,17.80
2023-04-21T20:00:01.846Z,17.81
2023-04-21T20:05:03.509Z,17.76
2023-04-21T20:10:06.128Z,17.70
2023-04-21T20:15:08.207Z,17.63
2023-04-21T20:20:10.314Z,17.57
2023-04-21T20:25:12.742Z,17.45
2023-04-21T20:30:14.334Z,17.28
2023-04-21T20:35:16.920Z,17.11
2023-04-21T20:40:18.697Z,16.82
2023-04-21T20:45:20.139Z,16.64
2023-04-21T20:50:23.276Z,16.50
2023-04-21T20:55:24.790Z,16.36
2023-04-21T21:00:26.513Z,16.26
2023-04-21T21:05:30.213Z,16.18
2023-04-21T21:10:31.636Z,16.11
2023-04-21T21:15:33.857Z,16.08
2023-04-21T21:20:35.269Z,15.97
2023-04-21T21:25:36.632Z,15.81
2023-04-21T21:30:37.960Z,15.75
2023-04-21T21:35:39.343Z,15.50
2023-04-21T21:40:40.963Z,15.24
2023-04-21T21:45:42.358Z,15.42
2023-04-21T21:50:43.720Z,15.47
2023-04-21T21:55:45.080Z,15.28
2023-04-21T22:00:51.564Z,15.23
2023-04-21T22:05:53.112Z,15.06
2023-04-21T22:10:54.514Z,14.87
2023-04-21T22:15:56.493Z,14.92
2023-04-21T22:20:58.949Z,14.81
2023-04-21T22:26:00.432Z,14.78
2023-04-21T22:31:01.915Z,14.78
2023-04-21T22:36:03.581Z,14.69
2023-04-21T22:41:05.144Z,14.61
2023-04-21T22:46:06.823Z,14.58
2023-04-21T22:51:08.141Z,14.45
2023-04-21T22:56:09.516Z,14.29
2023-04-21T23:01:10.982Z,14.31
2023-04-21T23:06:13.287Z,14.30
2023-04-21T23:11:14.646Z,14.24
2023-04-21T23:16:16.354Z,14.22
2023-04-21T23:21:17.819Z,14.17
2023-04-21T23:26:19.245Z,14.11
2023-04-21T23:31:20.714Z,14.12
2023-04-21T23:36:22.093Z,14.16
2023-04-21T23:41:23.579Z,14.14
2023-04-21T23:46:24.918Z,14.16
2023-04-21T23:51:27.095Z,14.07
2023-04-21T23:56:28.986Z,14.05
